Terminal Aerodrome Forecast
Issued by NWS

Home | Current Version | Previous Version | Text Only | Print | Product List | Glossary On
Versions: 1 2 3 4 5 6 7 8 9 10 11 12 13 14 15 16
000
FTUS41 KCAR 212000 AAC
TAFBHB
TAF AMD
KBHB 212023Z 2120/2218 14008KT 5SM BR OVC008
     FM220100 VRB02KT 3SM -SHRA BR OVC005
     FM220800 VRB03KT P6SM BKN008 OVC022
     FM221100 24007KT P6SM BKN045
     FM221500 25011KT P6SM SCT130
      AMD LTD TO CLD VIS AND WIND=

USA.gov is the U.S. government's official web portal to all federal, state and local government web resources and services.